sensor_id;sensor_type;location;lat;lon;timestamp;P1;durP1;ratioP1;P2;durP2;ratioP2
63693;SDS011;49839;51.798;10.954;2023-12-20T00:02:21;0.35;;;0.20;;
63693;SDS011;49839;51.798;10.954;2023-12-20T00:04:49;0.47;;;0.30;;
63693;SDS011;49839;51.798;10.954;2023-12-20T00:07:18;0.60;;;0.30;;
63693;SDS011;49839;51.798;10.954;2023-12-20T00:09:45;0.53;;;0.30;;
63693;SDS011;49839;51.798;10.954;2023-12-20T00:12:13;0.30;;;0.25;;
63693;SDS011;49839;51.798;10.954;2023-12-20T00:14:40;0.43;;;0.30;;
63693;SDS011;49839;51.798;10.954;2023-12-20T00:17:08;0.95;;;0.40;;
63693;SDS011;49839;51.798;10.954;2023-12-20T00:19:35;0.50;;;0.20;;
63693;SDS011;49839;51.798;10.954;2023-12-20T00:22:03;0.75;;;0.32;;
63693;SDS011;49839;51.798;10.954;2023-12-20T00:24:32;0.52;;;0.30;;
63693;SDS011;49839;51.798;10.954;2023-12-20T00:26:59;0.35;;;0.20;;
63693;SDS011;49839;51.798;10.954;2023-12-20T00:29:27;0.95;;;0.50;;
63693;SDS011;49839;51.798;10.954;2023-12-20T00:31:54;0.32;;;0.22;;
63693;SDS011;49839;51.798;10.954;2023-12-20T00:34:21;0.88;;;0.30;;
63693;SDS011;49839;51.798;10.954;2023-12-20T00:36:49;0.70;;;0.30;;
63693;SDS011;49839;51.798;10.954;2023-12-20T00:39:16;0.50;;;0.20;;
63693;SDS011;49839;51.798;10.954;2023-12-20T00:41:45;0.50;;;0.30;;
63693;SDS011;49839;51.798;10.954;2023-12-20T00:44:13;0.40;;;0.30;;
63693;SDS011;49839;51.798;10.954;2023-12-20T00:46:40;0.52;;;0.30;;
63693;SDS011;49839;51.798;10.954;2023-12-20T00:49:08;0.68;;;0.28;;
63693;SDS011;49839;51.798;10.954;2023-12-20T00:51:35;1.23;;;0.50;;
63693;SDS011;49839;51.798;10.954;2023-12-20T00:54:03;0.85;;;0.45;;
63693;SDS011;49839;51.798;10.954;2023-12-20T00:56:30;1.67;;;0.45;;
63693;SDS011;49839;51.798;10.954;2023-12-20T00:58:59;1.70;;;0.30;;
63693;SDS011;49839;51.798;10.954;2023-12-20T01:01:26;0.20;;;0.20;;
63693;SDS011;49839;51.798;10.954;2023-12-20T01:03:54;1.00;;;0.50;;
63693;SDS011;49839;51.798;10.954;2023-12-20T01:06:22;0.50;;;0.30;;
63693;SDS011;49839;51.798;10.954;2023-12-20T01:08:49;1.17;;;0.40;;
63693;SDS011;49839;51.798;10.954;2023-12-20T01:11:16;1.65;;;0.45;;
63693;SDS011;49839;51.798;10.954;2023-12-20T01:13:44;0.73;;;0.35;;
63693;SDS011;49839;51.798;10.954;2023-12-20T01:16:12;0.77;;;0.40;;
63693;SDS011;49839;51.798;10.954;2023-12-20T01:18:40;0.93;;;0.47;;
63693;SDS011;49839;51.798;10.954;2023-12-20T01:21:07;0.45;;;0.30;;
63693;SDS011;49839;51.798;10.954;2023-12-20T01:23:35;1.20;;;0.40;;
63693;SDS011;49839;51.798;10.954;2023-12-20T01:26:02;0.30;;;0.20;;
63693;SDS011;49839;51.798;10.954;2023-12-20T01:28:31;0.60;;;0.30;;
63693;SDS011;49839;51.798;10.954;2023-12-20T01:30:58;1.45;;;0.50;;
63693;SDS011;49839;51.798;10.954;2023-12-20T01:33:27;1.40;;;0.43;;
63693;SDS011;49839;51.798;10.954;2023-12-20T01:35:54;0.82;;;0.38;;
63693;SDS011;49839;51.798;10.954;2023-12-20T01:38:22;0.52;;;0.38;;
63693;SDS011;49839;51.798;10.954;2023-12-20T01:40:49;0.57;;;0.40;;
63693;SDS011;49839;51.798;10.954;2023-12-20T01:43:17;0.95;;;0.43;;
63693;SDS011;49839;51.798;10.954;2023-12-20T01:45:44;1.83;;;0.38;;
63693;SDS011;49839;51.798;10.954;2023-12-20T01:48:12;2.47;;;0.40;;
63693;SDS011;49839;51.798;10.954;2023-12-20T01:50:41;0.43;;;0.30;;
63693;SDS011;49839;51.798;10.954;2023-12-20T01:53:09;0.85;;;0.40;;
63693;SDS011;49839;51.798;10.954;2023-12-20T01:55:39;0.28;;;0.10;;
63693;SDS011;49839;51.798;10.954;2023-12-20T01:58:07;0.20;;;0.20;;
63693;SDS011;49839;51.798;10.954;2023-12-20T02:00:35;0.20;;;0.10;;
63693;SDS011;49839;51.798;10.954;2023-12-20T02:03:03;0.63;;;0.17;;
63693;SDS011;49839;51.798;10.954;2023-12-20T02:05:31;0.70;;;0.20;;
63693;SDS011;49839;51.798;10.954;2023-12-20T02:08:00;0.55;;;0.30;;
63693;SDS011;49839;51.798;10.954;2023-12-20T02:10:28;0.93;;;0.30;;
63693;SDS011;49839;51.798;10.954;2023-12-20T02:12:57;0.15;;;0.10;;
63693;SDS011;49839;51.798;10.954;2023-12-20T02:15:24;0.25;;;0.10;;
63693;SDS011;49839;51.798;10.954;2023-12-20T02:17:52;0.40;;;0.20;;
63693;SDS011;49839;51.798;10.954;2023-12-20T02:20:20;0.30;;;0.20;;
63693;SDS011;49839;51.798;10.954;2023-12-20T02:22:49;0.47;;;0.20;;
63693;SDS011;49839;51.798;10.954;2023-12-20T02:25:16;0.52;;;0.20;;
63693;SDS011;49839;51.798;10.954;2023-12-20T02:27:44;0.40;;;0.20;;
63693;SDS011;49839;51.798;10.954;2023-12-20T02:30:12;0.45;;;0.30;;
63693;SDS011;49839;51.798;10.954;2023-12-20T02:32:39;0.60;;;0.30;;
63693;SDS011;49839;51.798;10.954;2023-12-20T02:35:07;0.77;;;0.20;;
63693;SDS011;49839;51.798;10.954;2023-12-20T02:37:34;0.25;;;0.20;;
63693;SDS011;49839;51.798;10.954;2023-12-20T02:40:04;0.20;;;0.10;;
63693;SDS011;49839;51.798;10.954;2023-12-20T02:42:31;0.40;;;0.10;;
63693;SDS011;49839;51.798;10.954;2023-12-20T02:44:59;0.55;;;0.30;;
63693;SDS011;49839;51.798;10.954;2023-12-20T02:47:26;0.50;;;0.25;;
63693;SDS011;49839;51.798;10.954;2023-12-20T02:49:55;1.05;;;0.30;;
63693;SDS011;49839;51.798;10.954;2023-12-20T02:52:23;0.20;;;0.20;;
63693;SDS011;49839;51.798;10.954;2023-12-20T02:54:51;0.55;;;0.25;;
63693;SDS011;49839;51.798;10.954;2023-12-20T02:57:19;0.30;;;0.30;;
63693;SDS011;49839;51.798;10.954;2023-12-20T02:59:47;0.40;;;0.25;;
63693;SDS011;49839;51.798;10.954;2023-12-20T03:02:14;1.13;;;0.57;;
63693;SDS011;49839;51.798;10.954;2023-12-20T03:04:42;1.10;;;0.50;;
63693;SDS011;49839;51.798;10.954;2023-12-20T03:07:09;0.85;;;0.50;;
63693;SDS011;49839;51.798;10.954;2023-12-20T03:09:38;1.80;;;0.77;;
63693;SDS011;49839;51.798;10.954;2023-12-20T03:12:27;3.25;;;1.27;;
63693;SDS011;49839;51.798;10.954;2023-12-20T03:14:54;3.10;;;1.50;;
63693;SDS011;49839;51.798;10.954;2023-12-20T03:17:21;4.32;;;1.38;;
63693;SDS011;49839;51.798;10.954;2023-12-20T03:19:49;4.70;;;1.88;;
63693;SDS011;49839;51.798;10.954;2023-12-20T03:22:16;4.45;;;1.48;;
63693;SDS011;49839;51.798;10.954;2023-12-20T03:24:44;6.10;;;1.60;;
63693;SDS011;49839;51.798;10.954;2023-12-20T03:27:11;6.18;;;1.52;;
63693;SDS011;49839;51.798;10.954;2023-12-20T03:29:40;9.85;;;1.70;;
63693;SDS011;49839;51.798;10.954;2023-12-20T03:32:07;5.13;;;1.30;;
63693;SDS011;49839;51.798;10.954;2023-12-20T03:34:35;6.88;;;1.73;;
63693;SDS011;49839;51.798;10.954;2023-12-20T03:37:03;5.28;;;1.15;;
63693;SDS011;49839;51.798;10.954;2023-12-20T03:39:30;6.47;;;1.58;;
63693;SDS011;49839;51.798;10.954;2023-12-20T03:41:58;2.90;;;1.15;;
63693;SDS011;49839;51.798;10.954;2023-12-20T03:44:25;9.77;;;1.30;;
63693;SDS011;49839;51.798;10.954;2023-12-20T03:46:54;5.15;;;1.15;;
63693;SDS011;49839;51.798;10.954;2023-12-20T03:49:21;7.75;;;1.30;;
63693;SDS011;49839;51.798;10.954;2023-12-20T03:51:48;4.30;;;1.50;;
63693;SDS011;49839;51.798;10.954;2023-12-20T03:54:16;8.43;;;1.83;;
63693;SDS011;49839;51.798;10.954;2023-12-20T03:56:43;3.60;;;1.10;;
63693;SDS011;49839;51.798;10.954;2023-12-20T03:59:11;3.20;;;0.85;;
63693;SDS011;49839;51.798;10.954;2023-12-20T04:01:38;3.45;;;0.90;;
63693;SDS011;49839;51.798;10.954;2023-12-20T04:04:11;1.98;;;0.77;;
63693;SDS011;49839;51.798;10.954;2023-12-20T04:06:39;2.70;;;0.70;;
63693;SDS011;49839;51.798;10.954;2023-12-20T04:09:06;4.88;;;0.73;;
63693;SDS011;49839;51.798;10.954;2023-12-20T04:11:36;4.35;;;0.70;;
63693;SDS011;49839;51.798;10.954;2023-12-20T04:14:03;6.72;;;0.75;;
63693;SDS011;49839;51.798;10.954;2023-12-20T04:16:31;5.18;;;0.75;;
63693;SDS011;49839;51.798;10.954;2023-12-20T04:18:59;6.05;;;0.80;;
63693;SDS011;49839;51.798;10.954;2023-12-20T04:21:28;3.65;;;0.50;;
63693;SDS011;49839;51.798;10.954;2023-12-20T04:23:56;5.85;;;0.93;;
63693;SDS011;49839;51.798;10.954;2023-12-20T04:26:24;2.65;;;0.80;;
63693;SDS011;49839;51.798;10.954;2023-12-20T04:28:51;3.97;;;0.70;;
63693;SDS011;49839;51.798;10.954;2023-12-20T04:31:20;2.80;;;0.60;;
63693;SDS011;49839;51.798;10.954;2023-12-20T04:33:48;3.30;;;0.90;;
63693;SDS011;49839;51.798;10.954;2023-12-20T04:36:15;4.53;;;0.77;;
63693;SDS011;49839;51.798;10.954;2023-12-20T04:38:44;3.58;;;0.70;;
63693;SDS011;49839;51.798;10.954;2023-12-20T04:41:11;3.28;;;0.77;;
63693;SDS011;49839;51.798;10.954;2023-12-20T04:43:41;3.83;;;0.60;;
63693;SDS011;49839;51.798;10.954;2023-12-20T04:46:09;2.70;;;0.60;;
63693;SDS011;49839;51.798;10.954;2023-12-20T04:48:36;3.00;;;0.90;;
63693;SDS011;49839;51.798;10.954;2023-12-20T04:51:04;5.28;;;0.80;;
63693;SDS011;49839;51.798;10.954;2023-12-20T04:53:32;4.53;;;0.63;;
63693;SDS011;49839;51.798;10.954;2023-12-20T04:56:01;4.75;;;0.80;;
63693;SDS011;49839;51.798;10.954;2023-12-20T04:58:29;4.63;;;0.75;;
63693;SDS011;49839;51.798;10.954;2023-12-20T05:00:56;2.22;;;0.75;;
63693;SDS011;49839;51.798;10.954;2023-12-20T05:03:24;1.83;;;0.70;;
63693;SDS011;49839;51.798;10.954;2023-12-20T05:05:51;4.28;;;0.80;;
63693;SDS011;49839;51.798;10.954;2023-12-20T05:08:19;4.00;;;0.70;;
63693;SDS011;49839;51.798;10.954;2023-12-20T05:10:46;3.78;;;0.65;;
63693;SDS011;49839;51.798;10.954;2023-12-20T05:13:15;4.18;;;1.02;;
63693;SDS011;49839;51.798;10.954;2023-12-20T05:15:43;8.70;;;3.97;;
63693;SDS011;49839;51.798;10.954;2023-12-20T05:18:10;4.28;;;1.17;;
63693;SDS011;49839;51.798;10.954;2023-12-20T05:20:38;4.65;;;1.08;;
63693;SDS011;49839;51.798;10.954;2023-12-20T05:23:05;6.13;;;2.13;;
63693;SDS011;49839;51.798;10.954;2023-12-20T05:25:32;2.63;;;0.85;;
63693;SDS011;49839;51.798;10.954;2023-12-20T05:28:00;5.45;;;1.40;;
63693;SDS011;49839;51.798;10.954;2023-12-20T05:30:29;7.90;;;1.80;;
63693;SDS011;49839;51.798;10.954;2023-12-20T05:32:56;6.55;;;1.92;;
63693;SDS011;49839;51.798;10.954;2023-12-20T05:35:24;4.57;;;1.65;;
63693;SDS011;49839;51.798;10.954;2023-12-20T05:37:51;4.63;;;0.68;;
63693;SDS011;49839;51.798;10.954;2023-12-20T05:40:19;5.65;;;1.33;;
63693;SDS011;49839;51.798;10.954;2023-12-20T05:42:46;6.60;;;0.90;;
63693;SDS011;49839;51.798;10.954;2023-12-20T05:45:14;8.10;;;3.55;;
63693;SDS011;49839;51.798;10.954;2023-12-20T05:47:43;4.40;;;0.68;;
63693;SDS011;49839;51.798;10.954;2023-12-20T05:50:11;5.05;;;0.95;;
63693;SDS011;49839;51.798;10.954;2023-12-20T05:52:38;4.85;;;0.95;;
63693;SDS011;49839;51.798;10.954;2023-12-20T05:55:06;4.80;;;1.17;;
63693;SDS011;49839;51.798;10.954;2023-12-20T05:57:34;2.05;;;0.60;;
63693;SDS011;49839;51.798;10.954;2023-12-20T06:00:02;1.85;;;0.45;;
63693;SDS011;49839;51.798;10.954;2023-12-20T06:02:30;6.68;;;0.85;;
63693;SDS011;49839;51.798;10.954;2023-12-20T06:04:58;2.33;;;0.68;;
63693;SDS011;49839;51.798;10.954;2023-12-20T06:07:26;4.00;;;0.90;;
63693;SDS011;49839;51.798;10.954;2023-12-20T06:09:54;4.05;;;0.70;;
63693;SDS011;49839;51.798;10.954;2023-12-20T06:12:21;5.75;;;1.88;;
63693;SDS011;49839;51.798;10.954;2023-12-20T06:14:49;2.80;;;1.00;;
63693;SDS011;49839;51.798;10.954;2023-12-20T06:17:16;2.72;;;0.88;;
63693;SDS011;49839;51.798;10.954;2023-12-20T06:19:43;2.30;;;0.68;;
63693;SDS011;49839;51.798;10.954;2023-12-20T06:22:15;4.38;;;0.80;;
63693;SDS011;49839;51.798;10.954;2023-12-20T06:24:43;9.93;;;0.90;;
63693;SDS011;49839;51.798;10.954;2023-12-20T06:27:10;5.85;;;0.90;;
63693;SDS011;49839;51.798;10.954;2023-12-20T06:29:38;4.63;;;1.00;;
63693;SDS011;49839;51.798;10.954;2023-12-20T06:32:07;3.95;;;1.00;;
63693;SDS011;49839;51.798;10.954;2023-12-20T06:34:34;3.63;;;0.80;;
63693;SDS011;49839;51.798;10.954;2023-12-20T06:37:02;4.15;;;1.83;;
63693;SDS011;49839;51.798;10.954;2023-12-20T06:39:30;4.78;;;0.60;;
63693;SDS011;49839;51.798;10.954;2023-12-20T06:42:00;4.93;;;1.30;;
63693;SDS011;49839;51.798;10.954;2023-12-20T06:44:27;8.27;;;1.73;;
63693;SDS011;49839;51.798;10.954;2023-12-20T06:46:55;3.75;;;0.80;;
63693;SDS011;49839;51.798;10.954;2023-12-20T06:49:22;2.30;;;0.73;;
63693;SDS011;49839;51.798;10.954;2023-12-20T06:51:50;6.32;;;1.08;;
63693;SDS011;49839;51.798;10.954;2023-12-20T06:54:17;5.05;;;0.80;;
63693;SDS011;49839;51.798;10.954;2023-12-20T06:56:46;3.75;;;0.57;;
63693;SDS011;49839;51.798;10.954;2023-12-20T06:59:14;5.83;;;1.20;;
63693;SDS011;49839;51.798;10.954;2023-12-20T07:01:42;8.07;;;1.17;;
63693;SDS011;49839;51.798;10.954;2023-12-20T07:04:09;7.53;;;1.30;;
63693;SDS011;49839;51.798;10.954;2023-12-20T07:06:37;7.55;;;1.42;;
63693;SDS011;49839;51.798;10.954;2023-12-20T07:09:04;8.50;;;1.88;;
63693;SDS011;49839;51.798;10.954;2023-12-20T07:11:32;9.40;;;1.77;;
63693;SDS011;49839;51.798;10.954;2023-12-20T07:14:01;9.00;;;2.20;;
63693;SDS011;49839;51.798;10.954;2023-12-20T07:16:28;5.85;;;1.48;;
63693;SDS011;49839;51.798;10.954;2023-12-20T07:18:55;5.38;;;1.27;;
63693;SDS011;49839;51.798;10.954;2023-12-20T07:21:23;5.07;;;1.08;;
63693;SDS011;49839;51.798;10.954;2023-12-20T07:23:51;4.15;;;0.88;;
63693;SDS011;49839;51.798;10.954;2023-12-20T07:26:18;2.47;;;0.77;;
63693;SDS011;49839;51.798;10.954;2023-12-20T07:28:47;3.53;;;0.90;;
63693;SDS011;49839;51.798;10.954;2023-12-20T07:31:16;5.07;;;1.10;;
63693;SDS011;49839;51.798;10.954;2023-12-20T07:33:43;5.93;;;1.30;;
63693;SDS011;49839;51.798;10.954;2023-12-20T07:36:12;5.90;;;1.25;;
63693;SDS011;49839;51.798;10.954;2023-12-20T07:38:39;8.10;;;1.30;;
63693;SDS011;49839;51.798;10.954;2023-12-20T07:41:09;8.18;;;1.30;;
63693;SDS011;49839;51.798;10.954;2023-12-20T07:43:36;3.70;;;0.88;;
63693;SDS011;49839;51.798;10.954;2023-12-20T07:46:04;5.32;;;1.13;;
63693;SDS011;49839;51.798;10.954;2023-12-20T07:48:33;4.95;;;0.93;;
63693;SDS011;49839;51.798;10.954;2023-12-20T07:51:01;6.50;;;1.30;;
63693;SDS011;49839;51.798;10.954;2023-12-20T07:53:28;3.15;;;0.80;;
63693;SDS011;49839;51.798;10.954;2023-12-20T07:55:56;4.07;;;1.20;;
63693;SDS011;49839;51.798;10.954;2023-12-20T07:58:23;2.65;;;1.00;;
63693;SDS011;49839;51.798;10.954;2023-12-20T08:01:10;2.92;;;0.80;;
63693;SDS011;49839;51.798;10.954;2023-12-20T08:03:39;2.83;;;0.73;;
63693;SDS011;49839;51.798;10.954;2023-12-20T08:06:06;6.43;;;1.05;;
63693;SDS011;49839;51.798;10.954;2023-12-20T08:08:34;5.50;;;1.05;;
63693;SDS011;49839;51.798;10.954;2023-12-20T08:11:01;6.80;;;1.20;;
63693;SDS011;49839;51.798;10.954;2023-12-20T08:13:29;6.78;;;0.88;;
63693;SDS011;49839;51.798;10.954;2023-12-20T08:15:56;2.95;;;0.55;;
63693;SDS011;49839;51.798;10.954;2023-12-20T08:18:24;5.85;;;0.70;;
63693;SDS011;49839;51.798;10.954;2023-12-20T08:20:53;2.40;;;0.50;;
63693;SDS011;49839;51.798;10.954;2023-12-20T08:23:20;2.03;;;0.47;;
63693;SDS011;49839;51.798;10.954;2023-12-20T08:25:52;4.95;;;0.60;;
63693;SDS011;49839;51.798;10.954;2023-12-20T08:28:19;5.35;;;0.93;;
63693;SDS011;49839;51.798;10.954;2023-12-20T08:30:47;5.15;;;0.88;;
63693;SDS011;49839;51.798;10.954;2023-12-20T08:33:14;8.10;;;1.65;;
63693;SDS011;49839;51.798;10.954;2023-12-20T08:35:42;6.03;;;1.00;;
63693;SDS011;49839;51.798;10.954;2023-12-20T08:38:11;4.45;;;1.17;;
63693;SDS011;49839;51.798;10.954;2023-12-20T08:40:38;4.47;;;1.38;;
63693;SDS011;49839;51.798;10.954;2023-12-20T08:43:06;4.25;;;0.88;;
63693;SDS011;49839;51.798;10.954;2023-12-20T08:45:33;9.70;;;1.42;;
63693;SDS011;49839;51.798;10.954;2023-12-20T08:48:01;8.48;;;1.30;;
63693;SDS011;49839;51.798;10.954;2023-12-20T08:50:33;7.38;;;1.25;;
63693;SDS011;49839;51.798;10.954;2023-12-20T08:53:01;6.70;;;1.00;;
63693;SDS011;49839;51.798;10.954;2023-12-20T08:55:29;6.38;;;1.25;;
63693;SDS011;49839;51.798;10.954;2023-12-20T08:57:58;8.57;;;1.42;;
63693;SDS011;49839;51.798;10.954;2023-12-20T09:00:25;7.60;;;1.02;;
63693;SDS011;49839;51.798;10.954;2023-12-20T09:02:54;8.80;;;1.20;;
63693;SDS011;49839;51.798;10.954;2023-12-20T09:05:21;4.05;;;0.68;;
63693;SDS011;49839;51.798;10.954;2023-12-20T09:07:49;9.88;;;1.85;;
63693;SDS011;49839;51.798;10.954;2023-12-20T09:10:17;8.52;;;1.13;;
63693;SDS011;49839;51.798;10.954;2023-12-20T09:12:49;9.43;;;1.00;;
63693;SDS011;49839;51.798;10.954;2023-12-20T09:15:17;4.93;;;1.37;;
63693;SDS011;49839;51.798;10.954;2023-12-20T09:17:45;4.85;;;1.05;;
63693;SDS011;49839;51.798;10.954;2023-12-20T09:20:13;6.47;;;1.20;;
63693;SDS011;49839;51.798;10.954;2023-12-20T09:22:40;7.90;;;1.15;;
63693;SDS011;49839;51.798;10.954;2023-12-20T09:25:09;4.85;;;1.10;;
63693;SDS011;49839;51.798;10.954;2023-12-20T09:27:36;7.38;;;1.20;;
63693;SDS011;49839;51.798;10.954;2023-12-20T09:30:06;5.57;;;1.25;;
63693;SDS011;49839;51.798;10.954;2023-12-20T09:32:33;7.43;;;1.27;;
63693;SDS011;49839;51.798;10.954;2023-12-20T09:35:01;3.72;;;0.98;;
63693;SDS011;49839;51.798;10.954;2023-12-20T09:37:29;7.65;;;0.95;;
63693;SDS011;49839;51.798;10.954;2023-12-20T09:39:56;10.68;;;1.35;;
63693;SDS011;49839;51.798;10.954;2023-12-20T09:42:29;5.95;;;1.10;;
63693;SDS011;49839;51.798;10.954;2023-12-20T09:44:59;7.35;;;1.40;;
63693;SDS011;49839;51.798;10.954;2023-12-20T09:47:30;3.58;;;0.82;;
63693;SDS011;49839;51.798;10.954;2023-12-20T09:49:58;5.68;;;1.15;;
63693;SDS011;49839;51.798;10.954;2023-12-20T09:52:26;6.97;;;1.00;;
63693;SDS011;49839;51.798;10.954;2023-12-20T09:54:53;5.30;;;1.00;;
63693;SDS011;49839;51.798;10.954;2023-12-20T09:57:22;6.47;;;1.30;;
63693;SDS011;49839;51.798;10.954;2023-12-20T09:59:50;5.32;;;1.00;;
63693;SDS011;49839;51.798;10.954;2023-12-20T10:02:17;7.97;;;1.67;;
63693;SDS011;49839;51.798;10.954;2023-12-20T10:04:50;5.25;;;1.10;;
63693;SDS011;49839;51.798;10.954;2023-12-20T10:07:17;4.18;;;1.05;;
63693;SDS011;49839;51.798;10.954;2023-12-20T10:09:47;7.55;;;1.33;;
63693;SDS011;49839;51.798;10.954;2023-12-20T10:12:14;4.47;;;1.35;;
63693;SDS011;49839;51.798;10.954;2023-12-20T10:14:42;3.85;;;1.10;;
63693;SDS011;49839;51.798;10.954;2023-12-20T10:17:09;6.20;;;1.15;;
63693;SDS011;49839;51.798;10.954;2023-12-20T10:19:37;7.90;;;1.25;;
63693;SDS011;49839;51.798;10.954;2023-12-20T10:22:06;7.90;;;1.38;;
63693;SDS011;49839;51.798;10.954;2023-12-20T10:24:33;5.50;;;1.27;;
63693;SDS011;49839;51.798;10.954;2023-12-20T10:27:01;6.53;;;1.10;;
63693;SDS011;49839;51.798;10.954;2023-12-20T10:29:31;3.80;;;0.80;;
63693;SDS011;49839;51.798;10.954;2023-12-20T10:32:05;4.72;;;1.13;;
63693;SDS011;49839;51.798;10.954;2023-12-20T10:34:48;6.50;;;1.38;;
63693;SDS011;49839;51.798;10.954;2023-12-20T10:37:17;5.30;;;0.93;;
63693;SDS011;49839;51.798;10.954;2023-12-20T10:39:46;7.63;;;1.20;;
63693;SDS011;49839;51.798;10.954;2023-12-20T10:42:17;5.18;;;1.30;;
63693;SDS011;49839;51.798;10.954;2023-12-20T10:44:46;5.45;;;1.17;;
63693;SDS011;49839;51.798;10.954;2023-12-20T10:47:13;3.10;;;0.93;;
63693;SDS011;49839;51.798;10.954;2023-12-20T10:49:41;5.30;;;0.93;;
63693;SDS011;49839;51.798;10.954;2023-12-20T10:52:09;5.43;;;1.00;;
63693;SDS011;49839;51.798;10.954;2023-12-20T10:54:37;6.45;;;1.20;;
63693;SDS011;49839;51.798;10.954;2023-12-20T10:57:06;7.32;;;1.20;;
63693;SDS011;49839;51.798;10.954;2023-12-20T10:59:33;6.82;;;1.30;;
63693;SDS011;49839;51.798;10.954;2023-12-20T11:02:03;3.97;;;0.85;;
63693;SDS011;49839;51.798;10.954;2023-12-20T11:04:35;2.60;;;0.65;;
63693;SDS011;49839;51.798;10.954;2023-12-20T11:07:07;3.72;;;0.80;;
63693;SDS011;49839;51.798;10.954;2023-12-20T11:09:36;4.35;;;0.73;;
63693;SDS011;49839;51.798;10.954;2023-12-20T11:12:09;2.65;;;0.70;;
63693;SDS011;49839;51.798;10.954;2023-12-20T11:14:40;3.50;;;0.77;;
63693;SDS011;49839;51.798;10.954;2023-12-20T11:17:08;4.85;;;1.33;;
63693;SDS011;49839;51.798;10.954;2023-12-20T11:19:38;5.35;;;0.85;;
63693;SDS011;49839;51.798;10.954;2023-12-20T11:22:05;5.35;;;1.23;;
63693;SDS011;49839;51.798;10.954;2023-12-20T11:24:33;4.03;;;0.82;;
63693;SDS011;49839;51.798;10.954;2023-12-20T11:27:04;4.40;;;1.23;;
63693;SDS011;49839;51.798;10.954;2023-12-20T11:29:33;4.18;;;0.98;;
63693;SDS011;49839;51.798;10.954;2023-12-20T11:32:02;4.63;;;1.08;;
63693;SDS011;49839;51.798;10.954;2023-12-20T11:34:31;5.35;;;1.10;;
63693;SDS011;49839;51.798;10.954;2023-12-20T11:36:59;6.25;;;1.65;;
63693;SDS011;49839;51.798;10.954;2023-12-20T11:39:27;5.30;;;1.40;;
63693;SDS011;49839;51.798;10.954;2023-12-20T11:42:03;6.93;;;1.50;;
63693;SDS011;49839;51.798;10.954;2023-12-20T11:44:35;5.45;;;1.10;;
63693;SDS011;49839;51.798;10.954;2023-12-20T11:47:03;4.28;;;0.90;;
63693;SDS011;49839;51.798;10.954;2023-12-20T11:49:31;4.88;;;1.42;;
63693;SDS011;49839;51.798;10.954;2023-12-20T11:51:58;7.82;;;1.63;;
63693;SDS011;49839;51.798;10.954;2023-12-20T11:54:26;4.45;;;1.30;;
63693;SDS011;49839;51.798;10.954;2023-12-20T11:56:54;7.22;;;1.40;;
63693;SDS011;49839;51.798;10.954;2023-12-20T11:59:23;2.58;;;0.93;;
63693;SDS011;49839;51.798;10.954;2023-12-20T12:01:51;3.63;;;1.05;;
63693;SDS011;49839;51.798;10.954;2023-12-20T12:04:19;5.13;;;1.00;;
63693;SDS011;49839;51.798;10.954;2023-12-20T12:06:47;4.95;;;1.13;;
63693;SDS011;49839;51.798;10.954;2023-12-20T12:09:17;4.78;;;1.10;;
63693;SDS011;49839;51.798;10.954;2023-12-20T12:11:44;4.80;;;0.90;;
63693;SDS011;49839;51.798;10.954;2023-12-20T12:14:12;6.82;;;1.00;;
63693;SDS011;49839;51.798;10.954;2023-12-20T12:16:42;4.78;;;1.10;;
63693;SDS011;49839;51.798;10.954;2023-12-20T12:19:20;2.35;;;0.98;;
63693;SDS011;49839;51.798;10.954;2023-12-20T12:21:52;1.92;;;0.63;;
63693;SDS011;49839;51.798;10.954;2023-12-20T12:24:33;3.97;;;0.73;;
63693;SDS011;49839;51.798;10.954;2023-12-20T12:27:05;4.35;;;1.10;;
63693;SDS011;49839;51.798;10.954;2023-12-20T12:29:33;5.93;;;1.37;;
63693;SDS011;49839;51.798;10.954;2023-12-20T12:32:04;3.75;;;0.90;;
63693;SDS011;49839;51.798;10.954;2023-12-20T12:34:40;1.65;;;0.73;;
63693;SDS011;49839;51.798;10.954;2023-12-20T12:39:40;2.53;;;0.80;;
63693;SDS011;49839;51.798;10.954;2023-12-20T12:42:07;4.13;;;0.90;;
63693;SDS011;49839;51.798;10.954;2023-12-20T12:44:37;2.03;;;0.60;;
63693;SDS011;49839;51.798;10.954;2023-12-20T12:49:32;4.43;;;1.42;;
63693;SDS011;49839;51.798;10.954;2023-12-20T12:52:01;2.88;;;0.65;;
63693;SDS011;49839;51.798;10.954;2023-12-20T12:54:34;4.28;;;1.50;;
63693;SDS011;49839;51.798;10.954;2023-12-20T12:57:02;3.22;;;0.80;;
63693;SDS011;49839;51.798;10.954;2023-12-20T13:02:02;4.32;;;1.40;;
63693;SDS011;49839;51.798;10.954;2023-12-20T13:04:30;3.22;;;0.70;;
63693;SDS011;49839;51.798;10.954;2023-12-20T13:06:59;2.83;;;0.50;;
63693;SDS011;49839;51.798;10.954;2023-12-20T13:09:28;1.60;;;0.60;;
63693;SDS011;49839;51.798;10.954;2023-12-20T13:11:56;2.22;;;0.60;;
63693;SDS011;49839;51.798;10.954;2023-12-20T13:14:23;3.60;;;0.80;;
63693;SDS011;49839;51.798;10.954;2023-12-20T13:16:51;3.05;;;1.00;;
63693;SDS011;49839;51.798;10.954;2023-12-20T13:19:18;2.47;;;0.70;;
63693;SDS011;49839;51.798;10.954;2023-12-20T13:21:47;1.88;;;0.40;;
63693;SDS011;49839;51.798;10.954;2023-12-20T13:26:46;4.90;;;0.57;;
63693;SDS011;49839;51.798;10.954;2023-12-20T13:29:13;1.35;;;0.57;;
63693;SDS011;49839;51.798;10.954;2023-12-20T13:31:41;1.35;;;0.70;;
63693;SDS011;49839;51.798;10.954;2023-12-20T13:34:09;3.55;;;0.70;;
63693;SDS011;49839;51.798;10.954;2023-12-20T13:36:37;1.95;;;0.70;;
63693;SDS011;49839;51.798;10.954;2023-12-20T13:39:05;1.85;;;0.80;;
63693;SDS011;49839;51.798;10.954;2023-12-20T13:41:33;2.03;;;0.98;;
63693;SDS011;49839;51.798;10.954;2023-12-20T13:44:02;3.10;;;1.00;;
63693;SDS011;49839;51.798;10.954;2023-12-20T13:46:32;2.80;;;1.40;;
63693;SDS011;49839;51.798;10.954;2023-12-20T13:48:59;4.82;;;1.60;;
63693;SDS011;49839;51.798;10.954;2023-12-20T13:51:28;5.35;;;1.67;;
63693;SDS011;49839;51.798;10.954;2023-12-20T13:53:55;4.32;;;0.93;;
63693;SDS011;49839;51.798;10.954;2023-12-20T13:56:23;2.30;;;0.68;;
63693;SDS011;49839;51.798;10.954;2023-12-20T13:58:51;1.02;;;0.40;;
63693;SDS011;49839;51.798;10.954;2023-12-20T14:01:20;1.85;;;0.40;;
63693;SDS011;49839;51.798;10.954;2023-12-20T14:03:47;4.10;;;0.47;;
63693;SDS011;49839;51.798;10.954;2023-12-20T14:06:15;1.60;;;0.47;;
63693;SDS011;49839;51.798;10.954;2023-12-20T14:08:42;2.63;;;0.70;;
63693;SDS011;49839;51.798;10.954;2023-12-20T14:11:10;1.60;;;0.57;;
63693;SDS011;49839;51.798;10.954;2023-12-20T14:13:37;1.85;;;0.63;;
63693;SDS011;49839;51.798;10.954;2023-12-20T14:16:05;4.18;;;1.38;;
63693;SDS011;49839;51.798;10.954;2023-12-20T14:18:34;4.70;;;1.77;;
63693;SDS011;49839;51.798;10.954;2023-12-20T14:21:01;7.15;;;1.88;;
63693;SDS011;49839;51.798;10.954;2023-12-20T14:23:28;4.88;;;1.85;;
63693;SDS011;49839;51.798;10.954;2023-12-20T14:25:56;4.07;;;1.50;;
63693;SDS011;49839;51.798;10.954;2023-12-20T14:28:25;2.83;;;0.98;;
63693;SDS011;49839;51.798;10.954;2023-12-20T14:30:52;2.88;;;1.33;;
63693;SDS011;49839;51.798;10.954;2023-12-20T14:33:22;2.25;;;0.77;;
63693;SDS011;49839;51.798;10.954;2023-12-20T14:35:53;2.65;;;0.77;;
63693;SDS011;49839;51.798;10.954;2023-12-20T14:38:22;1.33;;;0.70;;
63693;SDS011;49839;51.798;10.954;2023-12-20T14:40:50;1.02;;;0.40;;
63693;SDS011;49839;51.798;10.954;2023-12-20T14:43:17;0.85;;;0.50;;
63693;SDS011;49839;51.798;10.954;2023-12-20T14:45:45;0.73;;;0.45;;
63693;SDS011;49839;51.798;10.954;2023-12-20T14:48:14;3.25;;;0.90;;
63693;SDS011;49839;51.798;10.954;2023-12-20T14:50:43;2.50;;;0.73;;